sensor_id;sensor_type;location;lat;lon;timestamp;temperature;humidity
74420;DHT22;62855;50.718;-2.460;2022-12-29T00:02:01;47.48;70.00
74420;DHT22;62855;50.718;-2.460;2022-12-29T00:05:00;47.48;70.00
74420;DHT22;62855;50.718;-2.460;2022-12-29T00:08:01;47.48;70.00
74420;DHT22;62855;50.718;-2.460;2022-12-29T00:11:01;47.48;71.00
74420;DHT22;62855;50.718;-2.460;2022-12-29T00:14:00;47.48;71.00
74420;DHT22;62855;50.718;-2.460;2022-12-29T00:17:00;47.48;71.00
74420;DHT22;62855;50.718;-2.460;2022-12-29T00:20:01;47.48;71.00
74420;DHT22;62855;50.718;-2.460;2022-12-29T00:23:00;47.48;71.00
74420;DHT22;62855;50.718;-2.460;2022-12-29T00:26:02;47.66;72.00
74420;DHT22;62855;50.718;-2.460;2022-12-29T00:29:01;47.48;72.00
74420;DHT22;62855;50.718;-2.460;2022-12-29T00:32:01;47.48;72.00
74420;DHT22;62855;50.718;-2.460;2022-12-29T00:35:00;47.66;72.00
74420;DHT22;62855;50.718;-2.460;2022-12-29T00:38:03;47.66;73.00
74420;DHT22;62855;50.718;-2.460;2022-12-29T00:41:01;47.84;73.00
74420;DHT22;62855;50.718;-2.460;2022-12-29T00:44:01;47.84;73.00
74420;DHT22;62855;50.718;-2.460;2022-12-29T00:47:00;48.02;73.00
74420;DHT22;62855;50.718;-2.460;2022-12-29T00:50:01;48.02;73.00
74420;DHT22;62855;50.718;-2.460;2022-12-29T00:53:01;48.02;73.00
74420;DHT22;62855;50.718;-2.460;2022-12-29T00:56:00;47.84;73.00
74420;DHT22;62855;50.718;-2.460;2022-12-29T00:59:01;47.84;72.00
74420;DHT22;62855;50.718;-2.460;2022-12-29T01:02:01;48.02;72.00
74420;DHT22;62855;50.718;-2.460;2022-12-29T01:05:01;48.20;72.00
74420;DHT22;62855;50.718;-2.460;2022-12-29T01:08:01;48.38;72.00
74420;DHT22;62855;50.718;-2.460;2022-12-29T01:11:03;48.38;72.00
74420;DHT22;62855;50.718;-2.460;2022-12-29T01:14:00;48.38;72.00
74420;DHT22;62855;50.718;-2.460;2022-12-29T01:17:00;48.38;71.00
74420;DHT22;62855;50.718;-2.460;2022-12-29T01:20:02;48.38;71.00
74420;DHT22;62855;50.718;-2.460;2022-12-29T01:23:01;48.38;71.00
74420;DHT22;62855;50.718;-2.460;2022-12-29T01:26:08;48.20;71.00
74420;DHT22;62855;50.718;-2.460;2022-12-29T01:29:01;48.38;71.00
74420;DHT22;62855;50.718;-2.460;2022-12-29T01:32:01;48.38;71.00
74420;DHT22;62855;50.718;-2.460;2022-12-29T01:35:01;48.20;71.00
74420;DHT22;62855;50.718;-2.460;2022-12-29T01:38:00;48.20;72.00
74420;DHT22;62855;50.718;-2.460;2022-12-29T01:41:01;48.20;72.00
74420;DHT22;62855;50.718;-2.460;2022-12-29T01:44:01;48.56;72.00
74420;DHT22;62855;50.718;-2.460;2022-12-29T01:47:01;48.56;72.00
74420;DHT22;62855;50.718;-2.460;2022-12-29T01:50:05;48.74;72.00
74420;DHT22;62855;50.718;-2.460;2022-12-29T01:53:04;48.74;72.00
74420;DHT22;62855;50.718;-2.460;2022-12-29T01:56:07;48.74;72.00
74420;DHT22;62855;50.718;-2.460;2022-12-29T01:59:03;48.92;72.00
74420;DHT22;62855;50.718;-2.460;2022-12-29T02:02:01;48.92;71.00
74420;DHT22;62855;50.718;-2.460;2022-12-29T02:05:05;48.92;71.00
74420;DHT22;62855;50.718;-2.460;2022-12-29T02:08:01;49.10;71.00
74420;DHT22;62855;50.718;-2.460;2022-12-29T02:11:01;49.10;71.00
74420;DHT22;62855;50.718;-2.460;2022-12-29T02:14:00;49.10;71.00
74420;DHT22;62855;50.718;-2.460;2022-12-29T02:17:08;49.10;71.00
74420;DHT22;62855;50.718;-2.460;2022-12-29T02:20:17;49.10;71.00
74420;DHT22;62855;50.718;-2.460;2022-12-29T02:23:18;49.28;71.00
74420;DHT22;62855;50.718;-2.460;2022-12-29T02:26:15;49.28;71.00
74420;DHT22;62855;50.718;-2.460;2022-12-29T02:29:21;49.28;72.00
74420;DHT22;62855;50.718;-2.460;2022-12-29T02:32:03;48.92;73.00
74420;DHT22;62855;50.718;-2.460;2022-12-29T02:35:10;48.74;74.00
74420;DHT22;62855;50.718;-2.460;2022-12-29T02:38:08;48.38;75.00
74420;DHT22;62855;50.718;-2.460;2022-12-29T02:41:07;48.20;75.00
74420;DHT22;62855;50.718;-2.460;2022-12-29T02:44:05;48.20;76.00
74420;DHT22;62855;50.718;-2.460;2022-12-29T02:47:09;48.02;77.00
74420;DHT22;62855;50.718;-2.460;2022-12-29T02:50:05;48.20;77.00
74420;DHT22;62855;50.718;-2.460;2022-12-29T02:53:02;48.20;77.00
74420;DHT22;62855;50.718;-2.460;2022-12-29T02:56:00;48.38;77.00
74420;DHT22;62855;50.718;-2.460;2022-12-29T02:59:01;48.38;77.00
74420;DHT22;62855;50.718;-2.460;2022-12-29T03:02:14;48.38;77.00
74420;DHT22;62855;50.718;-2.460;2022-12-29T03:05:14;48.56;77.00
74420;DHT22;62855;50.718;-2.460;2022-12-29T03:08:04;48.38;78.00
74420;DHT22;62855;50.718;-2.460;2022-12-29T03:11:03;48.38;78.00
74420;DHT22;62855;50.718;-2.460;2022-12-29T03:14:07;48.20;79.00
74420;DHT22;62855;50.718;-2.460;2022-12-29T03:17:04;48.02;79.00
74420;DHT22;62855;50.718;-2.460;2022-12-29T03:20:05;48.02;80.00
74420;DHT22;62855;50.718;-2.460;2022-12-29T03:23:03;48.02;80.00
74420;DHT22;62855;50.718;-2.460;2022-12-29T03:26:04;48.02;80.00
74420;DHT22;62855;50.718;-2.460;2022-12-29T03:29:01;48.02;80.00
74420;DHT22;62855;50.718;-2.460;2022-12-29T03:32:02;48.02;80.00
74420;DHT22;62855;50.718;-2.460;2022-12-29T03:35:02;48.02;80.00
74420;DHT22;62855;50.718;-2.460;2022-12-29T03:38:08;48.02;80.00
74420;DHT22;62855;50.718;-2.460;2022-12-29T03:41:04;48.02;80.00
74420;DHT22;62855;50.718;-2.460;2022-12-29T03:44:00;48.02;80.00
74420;DHT22;62855;50.718;-2.460;2022-12-29T03:47:01;48.02;80.00
74420;DHT22;62855;50.718;-2.460;2022-12-29T03:50:01;48.02;80.00
74420;DHT22;62855;50.718;-2.460;2022-12-29T03:53:00;47.84;80.00
74420;DHT22;62855;50.718;-2.460;2022-12-29T03:56:01;47.84;80.00
74420;DHT22;62855;50.718;-2.460;2022-12-29T03:59:01;47.84;80.00
74420;DHT22;62855;50.718;-2.460;2022-12-29T04:02:01;47.66;80.00
74420;DHT22;62855;50.718;-2.460;2022-12-29T04:05:00;47.66;80.00
74420;DHT22;62855;50.718;-2.460;2022-12-29T04:08:00;47.66;80.00
74420;DHT22;62855;50.718;-2.460;2022-12-29T04:11:01;47.66;80.00
74420;DHT22;62855;50.718;-2.460;2022-12-29T04:14:00;47.48;80.00
74420;DHT22;62855;50.718;-2.460;2022-12-29T04:17:00;47.48;80.00
74420;DHT22;62855;50.718;-2.460;2022-12-29T04:20:01;47.30;80.00
74420;DHT22;62855;50.718;-2.460;2022-12-29T04:23:00;47.30;80.00
74420;DHT22;62855;50.718;-2.460;2022-12-29T04:26:01;47.12;80.00
74420;DHT22;62855;50.718;-2.460;2022-12-29T04:29:00;47.12;80.00
74420;DHT22;62855;50.718;-2.460;2022-12-29T04:32:00;46.94;80.00
74420;DHT22;62855;50.718;-2.460;2022-12-29T04:35:00;46.94;80.00
74420;DHT22;62855;50.718;-2.460;2022-12-29T04:38:01;46.94;80.00
74420;DHT22;62855;50.718;-2.460;2022-12-29T04:41:01;46.94;80.00
74420;DHT22;62855;50.718;-2.460;2022-12-29T04:44:00;46.76;80.00
74420;DHT22;62855;50.718;-2.460;2022-12-29T04:47:01;46.76;80.00
74420;DHT22;62855;50.718;-2.460;2022-12-29T04:50:00;46.76;80.00
74420;DHT22;62855;50.718;-2.460;2022-12-29T04:53:00;46.76;80.00
74420;DHT22;62855;50.718;-2.460;2022-12-29T04:56:01;46.58;79.00
74420;DHT22;62855;50.718;-2.460;2022-12-29T04:59:00;46.58;79.00
74420;DHT22;62855;50.718;-2.460;2022-12-29T05:02:01;46.40;78.00
74420;DHT22;62855;50.718;-2.460;2022-12-29T05:05:01;46.40;78.00
74420;DHT22;62855;50.718;-2.460;2022-12-29T05:08:00;46.40;78.00
74420;DHT22;62855;50.718;-2.460;2022-12-29T05:11:01;46.22;77.00
74420;DHT22;62855;50.718;-2.460;2022-12-29T05:14:00;46.22;77.00
74420;DHT22;62855;50.718;-2.460;2022-12-29T05:17:01;46.22;77.00
74420;DHT22;62855;50.718;-2.460;2022-12-29T05:20:01;46.22;77.00
74420;DHT22;62855;50.718;-2.460;2022-12-29T05:23:00;46.22;77.00
74420;DHT22;62855;50.718;-2.460;2022-12-29T05:26:01;46.04;77.00
74420;DHT22;62855;50.718;-2.460;2022-12-29T05:29:00;46.04;77.00
74420;DHT22;62855;50.718;-2.460;2022-12-29T05:32:01;46.04;77.00
74420;DHT22;62855;50.718;-2.460;2022-12-29T05:35:01;46.22;77.00
74420;DHT22;62855;50.718;-2.460;2022-12-29T05:38:00;46.22;77.00
74420;DHT22;62855;50.718;-2.460;2022-12-29T05:41:01;46.40;78.00
74420;DHT22;62855;50.718;-2.460;2022-12-29T05:44:01;46.40;78.00
74420;DHT22;62855;50.718;-2.460;2022-12-29T05:47:01;46.58;78.00
74420;DHT22;62855;50.718;-2.460;2022-12-29T05:50:00;46.58;78.00
74420;DHT22;62855;50.718;-2.460;2022-12-29T05:53:01;46.58;78.00
74420;DHT22;62855;50.718;-2.460;2022-12-29T05:56:01;46.58;78.00
74420;DHT22;62855;50.718;-2.460;2022-12-29T05:59:00;46.40;79.00
74420;DHT22;62855;50.718;-2.460;2022-12-29T06:02:01;46.40;79.00
74420;DHT22;62855;50.718;-2.460;2022-12-29T06:05:00;46.40;79.00
74420;DHT22;62855;50.718;-2.460;2022-12-29T06:08:00;46.40;79.00
74420;DHT22;62855;50.718;-2.460;2022-12-29T06:11:01;46.40;79.00
74420;DHT22;62855;50.718;-2.460;2022-12-29T06:14:00;46.40;79.00
74420;DHT22;62855;50.718;-2.460;2022-12-29T06:17:00;46.58;79.00
74420;DHT22;62855;50.718;-2.460;2022-12-29T06:20:01;46.58;79.00
74420;DHT22;62855;50.718;-2.460;2022-12-29T06:23:00;46.76;79.00
74420;DHT22;62855;50.718;-2.460;2022-12-29T06:26:00;46.94;79.00
74420;DHT22;62855;50.718;-2.460;2022-12-29T06:29:01;46.94;79.00
74420;DHT22;62855;50.718;-2.460;2022-12-29T06:32:00;46.94;78.00
74420;DHT22;62855;50.718;-2.460;2022-12-29T06:35:01;46.76;77.00
74420;DHT22;62855;50.718;-2.460;2022-12-29T06:38:01;46.76;76.00
74420;DHT22;62855;50.718;-2.460;2022-12-29T06:41:01;46.58;76.00
74420;DHT22;62855;50.718;-2.460;2022-12-29T06:44:00;46.58;76.00
74420;DHT22;62855;50.718;-2.460;2022-12-29T06:47:00;46.58;76.00
74420;DHT22;62855;50.718;-2.460;2022-12-29T06:50:01;46.58;76.00
74420;DHT22;62855;50.718;-2.460;2022-12-29T06:53:01;46.40;76.00
74420;DHT22;62855;50.718;-2.460;2022-12-29T06:56:00;46.40;76.00
74420;DHT22;62855;50.718;-2.460;2022-12-29T06:59:00;46.40;76.00
74420;DHT22;62855;50.718;-2.460;2022-12-29T07:02:00;46.40;76.00
74420;DHT22;62855;50.718;-2.460;2022-12-29T07:05:00;46.22;76.00
74420;DHT22;62855;50.718;-2.460;2022-12-29T07:08:01;46.22;76.00
74420;DHT22;62855;50.718;-2.460;2022-12-29T07:11:01;46.22;77.00
74420;DHT22;62855;50.718;-2.460;2022-12-29T07:14:01;46.04;77.00
74420;DHT22;62855;50.718;-2.460;2022-12-29T07:17:01;46.04;77.00
74420;DHT22;62855;50.718;-2.460;2022-12-29T07:20:00;46.04;77.00
74420;DHT22;62855;50.718;-2.460;2022-12-29T07:23:02;45.86;77.00
74420;DHT22;62855;50.718;-2.460;2022-12-29T07:26:01;45.86;77.00
74420;DHT22;62855;50.718;-2.460;2022-12-29T07:29:00;45.86;77.00
74420;DHT22;62855;50.718;-2.460;2022-12-29T07:35:01;45.68;76.00
74420;DHT22;62855;50.718;-2.460;2022-12-29T07:38:00;45.50;76.00
74420;DHT22;62855;50.718;-2.460;2022-12-29T07:41:01;45.50;76.00
74420;DHT22;62855;50.718;-2.460;2022-12-29T07:44:00;45.50;76.00
74420;DHT22;62855;50.718;-2.460;2022-12-29T07:47:00;45.50;75.00
74420;DHT22;62855;50.718;-2.460;2022-12-29T14:31:01;46.94;69.00
74420;DHT22;62855;50.718;-2.460;2022-12-29T14:34:29;46.94;69.00
74420;DHT22;62855;50.718;-2.460;2022-12-29T14:37:01;46.94;70.00
74420;DHT22;62855;50.718;-2.460;2022-12-29T14:40:05;46.94;70.00
